Time;durP1;ratioP1;P1;durP2;ratioP2;P2;SDS_P1;SDS_P2;PMS_P1;PMS_P2;Temp;Humidity;BMP_temperature;BMP_pressure;BME280_temperature;BME280_humidity;BME280_pressure;Samples;Min_cycle;Max_cycle;Signal;HPM_P1;HPM_P2
2022/05/29 00:02:12;;;;;;;8.80;2.95;;;;;;;5.28;97.80;95235.50;5022817;28;20049;-71
2022/05/29 00:04:39;;;;;;;6.35;2.80;;;;;;;5.26;97.54;95240.16;5023099;28;20113;-72
2022/05/29 00:07:06;;;;;;;7.50;2.90;;;;;;;5.26;97.64;95232.34;5029207;28;20046;-72
2022/05/29 00:09:40;;;;;;;6.43;3.00;;;;;;;5.20;98.23;95223.66;5029470;28;20045;-71
2022/05/29 00:12:07;;;;;;;7.80;3.22;;;;;;;5.15;98.39;95223.63;5028771;28;20395;-72
2022/05/29 00:14:34;;;;;;;9.00;3.15;;;;;;;5.05;99.37;95228.69;5022746;28;20061;-71
2022/05/29 00:17:00;;;;;;;8.57;3.03;;;;;;;4.97;99.95;95228.09;5029304;28;20045;-71
2022/05/29 00:19:26;;;;;;;5.78;2.97;;;;;;;4.90;100.00;95227.47;5027417;28;20388;-71
2022/05/29 00:21:51;;;;;;;7.47;2.97;;;;;;;4.83;100.00;95225.03;5021906;28;20041;-72
2022/05/29 00:24:17;;;;;;;9.13;2.90;;;;;;;4.83;100.00;95222.41;5028210;28;20044;-72
2022/05/29 00:26:42;;;;;;;5.78;2.85;;;;;;;4.90;100.00;95211.81;5026073;28;20056;-73
2022/05/29 00:29:08;;;;;;;5.00;2.80;;;;;;;4.87;100.00;95207.09;5028026;28;20495;-73
2022/05/29 00:31:35;;;;;;;6.80;2.70;;;;;;;4.86;99.91;95206.28;5026875;28;20057;-73
2022/05/29 00:34:01;;;;;;;5.78;2.70;;;;;;;4.90;99.63;95196.19;5028517;28;20038;-73
2022/05/29 00:36:31;;;;;;;6.85;2.80;;;;;;;5.08;99.15;95196.91;5028644;28;20498;-73
2022/05/29 00:38:57;;;;;;;6.88;2.90;;;;;;;5.03;98.91;95200.25;5022192;28;20109;-73
2022/05/29 00:41:27;;;;;;;8.18;2.80;;;;;;;4.85;99.46;95198.72;5027609;28;20423;-73
2022/05/29 00:44:25;;;;;;;5.45;2.97;;;;;;;4.76;100.00;95202.75;5028402;28;20050;-73
2022/05/29 00:46:51;;;;;;;4.55;2.85;;;;;;;4.63;100.00;95196.06;5023003;28;20045;-73
2022/05/29 00:49:20;;;;;;;5.35;2.95;;;;;;;4.58;100.00;95194.16;5024444;28;20037;-73
2022/05/29 00:51:53;;;;;;;6.68;3.13;;;;;;;4.61;100.00;95188.50;5028321;28;20061;-73
2022/05/29 00:54:20;;;;;;;7.43;3.55;;;;;;;4.64;100.00;95182.78;5027432;28;20041;-73
2022/05/29 00:56:46;;;;;;;8.07;2.95;;;;;;;4.66;100.00;95175.50;5028918;28;20045;-73
2022/05/29 00:59:23;;;;;;;8.25;3.47;;;;;;;4.62;100.00;95169.19;5028426;28;20044;-73
2022/05/29 01:01:53;;;;;;;6.53;3.08;;;;;;;4.73;100.00;95169.34;5031770;28;20053;-73
2022/05/29 01:04:21;;;;;;;7.20;2.90;;;;;;;4.86;100.00;95163.78;5028100;28;20049;-73
2022/05/29 01:06:46;;;;;;;7.22;2.95;;;;;;;4.82;100.00;95162.69;5027767;28;20519;-73
2022/05/29 01:09:13;;;;;;;5.95;2.90;;;;;;;4.66;100.00;95159.09;5027820;28;20037;-73
2022/05/29 01:12:15;;;;;;;8.55;3.20;;;;;;;4.50;100.00;95155.50;5020884;28;20120;-73
2022/05/29 01:15:01;;;;;;;7.43;3.22;;;;;;;4.46;100.00;95143.97;5021970;28;20048;-73
2022/05/29 01:17:30;;;;;;;7.38;3.03;;;;;;;4.53;100.00;95147.19;5023353;28;20103;-73
2022/05/29 01:20:01;;;;;;;7.50;3.40;;;;;;;4.54;100.00;95140.97;5027348;28;20068;-73
2022/05/29 01:22:44;;;;;;;7.68;3.10;;;;;;;4.50;100.00;95126.81;5026043;28;20554;-73
2022/05/29 01:25:26;;;;;;;5.95;3.20;;;;;;;4.36;100.00;95128.19;5026637;28;20042;-74
2022/05/29 01:28:29;;;;;;;5.07;2.70;;;;;;;4.31;100.00;95121.88;5011438;28;20112;-73
2022/05/29 01:31:09;;;;;;;5.72;3.20;;;;;;;4.36;100.00;95117.78;5026407;28;20041;-74
2022/05/29 01:33:47;;;;;;;7.07;3.30;;;;;;;4.31;100.00;95111.47;5028185;28;20056;-73
2022/05/29 01:36:33;;;;;;;6.10;3.00;;;;;;;4.18;100.00;95101.38;5027315;28;20038;-74
2022/05/29 01:39:05;;;;;;;6.45;3.08;;;;;;;4.24;100.00;95110.84;5029167;28;20120;-74
2022/05/29 01:41:36;;;;;;;8.80;3.30;;;;;;;4.20;100.00;95099.31;5032449;28;20491;-74
2022/05/29 01:44:19;;;;;;;8.30;3.33;;;;;;;4.25;100.00;95102.00;5031357;28;20038;-74
2022/05/29 01:46:51;;;;;;;6.65;3.05;;;;;;;4.10;100.00;95099.94;5030038;28;20049;-74
2022/05/29 01:49:29;;;;;;;7.25;3.35;;;;;;;3.99;100.00;95096.41;5041354;28;20041;-74
2022/05/29 01:52:00;;;;;;;5.45;3.33;;;;;;;3.95;100.00;95087.50;5030221;28;20542;-74
2022/05/29 01:54:44;;;;;;;6.32;3.13;;;;;;;3.98;100.00;95083.63;5032061;28;20072;-74
2022/05/29 01:57:36;;;;;;;9.95;3.03;;;;;;;4.06;100.00;95077.22;5032438;28;20053;-74
2022/05/29 02:00:11;;;;;;;7.18;3.40;;;;;;;4.11;100.00;95067.69;5022339;28;20038;-74
2022/05/29 02:02:52;;;;;;;6.55;3.28;;;;;;;4.17;100.00;95058.13;5029581;28;20091;-75
2022/05/29 02:05:25;;;;;;;6.28;3.08;;;;;;;4.07;100.00;95052.78;5039791;28;20037;-74
2022/05/29 02:08:03;;;;;;;7.05;3.38;;;;;;;3.96;100.00;95055.22;5030997;28;20557;-74
2022/05/29 02:10:37;;;;;;;7.43;3.47;;;;;;;3.92;100.00;95051.53;5030672;28;20458;-74
2022/05/29 02:13:24;;;;;;;8.07;3.45;;;;;;;3.95;100.00;95039.81;5032153;28;20049;-74
2022/05/29 02:16:17;;;;;;;7.18;3.70;;;;;;;3.83;100.00;95032.13;5027105;28;20092;-74
2022/05/29 02:19:02;;;;;;;8.77;3.80;;;;;;;3.80;100.00;95033.38;5020161;28;20061;-75
2022/05/29 02:21:30;;;;;;;6.38;3.42;;;;;;;3.89;100.00;95025.94;5024098;28;20041;-74
2022/05/29 02:24:00;;;;;;;6.88;3.60;;;;;;;3.84;100.00;95023.28;5031471;28;20056;-74
2022/05/29 02:26:30;;;;;;;7.03;3.80;;;;;;;3.85;100.00;95014.47;5022010;28;20471;-74
2022/05/29 02:29:04;;;;;;;8.68;3.25;;;;;;;3.80;100.00;95027.38;5029630;28;20046;-74
2022/05/29 02:31:36;;;;;;;6.82;3.40;;;;;;;3.77;100.00;95022.66;5030594;28;20113;-74
2022/05/29 02:34:19;;;;;;;8.25;3.60;;;;;;;3.70;100.00;95027.25;5026823;28;20045;-74
2022/05/29 02:36:53;;;;;;;7.18;3.80;;;;;;;3.70;100.00;95022.03;5031231;28;20071;-74
2022/05/29 02:39:43;;;;;;;11.73;3.78;;;;;;;3.53;100.00;95022.81;5028529;28;20413;-74
2022/05/29 02:42:30;;;;;;;7.88;3.30;;;;;;;3.42;100.00;95021.06;5026118;28;20586;-74
2022/05/29 02:45:19;;;;;;;8.77;3.47;;;;;;;3.41;100.00;95022.13;5021375;28;20092;-74
2022/05/29 02:47:57;;;;;;;9.27;4.30;;;;;;;3.29;100.00;95017.78;5030637;28;20041;-74
2022/05/29 02:50:31;;;;;;;11.60;4.03;;;;;;;3.34;100.00;95017.06;5029197;28;20050;-73
2022/05/29 02:53:01;;;;;;;7.63;4.03;;;;;;;3.34;100.00;95008.47;5030370;28;20037;-73
2022/05/29 02:55:27;;;;;;;8.52;4.00;;;;;;;3.37;100.00;95008.00;5029799;28;20048;-74
2022/05/29 02:57:58;;;;;;;8.88;4.40;;;;;;;3.43;100.00;95007.06;5029390;28;20429;-74
2022/05/29 03:00:25;;;;;;;9.95;4.22;;;;;;;3.40;100.00;95002.31;5030708;28;20049;-73
2022/05/29 03:03:28;;;;;;;7.85;3.97;;;;;;;3.46;100.00;94998.78;5028380;28;20438;-73
2022/05/29 03:06:06;;;;;;;9.90;4.30;;;;;;;3.23;100.00;94994.50;5029562;28;20057;-73
2022/05/29 03:08:41;;;;;;;7.63;3.60;;;;;;;3.46;100.00;94980.56;5030404;28;20487;-72
2022/05/29 03:11:23;;;;;;;9.32;3.75;;;;;;;3.42;100.00;94975.06;5020307;28;20046;-72
2022/05/29 03:14:23;;;;;;;9.52;4.07;;;;;;;3.45;100.00;94968.59;5028737;28;20045;-73
2022/05/29 03:16:49;;;;;;;8.70;4.03;;;;;;;3.42;100.00;94974.25;5012943;28;20061;-73
2022/05/29 03:19:35;;;;;;;8.63;3.83;;;;;;;3.41;100.00;94972.69;5029980;28;20495;-73
2022/05/29 03:22:28;;;;;;;9.40;4.13;;;;;;;3.38;100.00;94973.16;5030029;28;20136;-73
2022/05/29 03:25:05;;;;;;;8.05;4.03;;;;;;;3.36;100.00;94975.22;5026480;28;20050;-72
2022/05/29 03:27:46;;;;;;;7.97;4.05;;;;;;;3.34;100.00;94982.47;5030443;28;20037;-72
2022/05/29 03:30:19;;;;;;;8.48;3.95;;;;;;;3.26;100.00;94987.03;5023912;28;20599;-72
2022/05/29 03:32:48;;;;;;;8.70;3.92;;;;;;;3.29;100.00;94983.97;5026058;28;20041;-72
2022/05/29 03:35:22;;;;;;;7.30;3.88;;;;;;;3.32;100.00;94980.09;5030233;28;20162;-72
2022/05/29 03:37:48;;;;;;;6.78;4.00;;;;;;;3.31;100.00;94982.94;5022844;28;20116;-72
2022/05/29 03:40:14;;;;;;;8.00;4.22;;;;;;;3.37;100.00;94971.59;5025153;28;20045;-72
2022/05/29 03:42:40;;;;;;;8.05;3.95;;;;;;;3.46;100.00;94975.34;5014796;28;20447;-72
2022/05/29 03:45:07;;;;;;;8.90;4.20;;;;;;;3.33;100.00;94980.88;5029705;28;20088;-72
2022/05/29 03:47:34;;;;;;;10.18;4.10;;;;;;;3.36;100.00;94980.41;5022533;28;20053;-72
2022/05/29 03:50:00;;;;;;;6.95;3.83;;;;;;;3.25;100.00;94980.25;5025883;28;20037;-72
2022/05/29 03:52:26;;;;;;;8.50;3.90;;;;;;;3.32;100.00;94987.09;5026278;28;20617;-72
2022/05/29 03:54:52;;;;;;;9.57;4.05;;;;;;;3.32;100.00;94994.91;5029524;28;20116;-72
2022/05/29 03:57:18;;;;;;;12.25;4.50;;;;;;;3.35;100.00;94994.44;5030095;28;20050;-72
2022/05/29 03:59:43;;;;;;;14.65;4.00;;;;;;;3.40;100.00;94991.91;5030508;28;20042;-72
2022/05/29 04:02:09;;;;;;;10.60;4.38;;;;;;;3.49;100.00;94985.28;5024388;28;20117;-72
2022/05/29 04:04:35;;;;;;;9.00;4.38;;;;;;;3.52;100.00;94974.44;5029381;28;20120;-72
2022/05/29 04:07:00;;;;;;;9.00;3.90;;;;;;;3.58;100.00;94977.91;5030190;28;20052;-72
2022/05/29 04:12:13;;;;;;;9.07;4.20;;;;;;;3.76;100.00;94969.03;5017733;28;20483;-71
2022/05/29 04:14:41;;;;;;;9.60;4.20;;;;;;;3.91;100.00;94964.03;5024533;28;20069;-72
2022/05/29 04:17:12;;;;;;;14.80;4.47;;;;;;;4.04;100.00;94970.72;5018103;28;20069;-72
2022/05/29 04:19:39;;;;;;;11.80;4.28;;;;;;;4.06;100.00;94957.44;5027977;28;20423;-72
2022/05/29 04:22:09;;;;;;;10.48;4.45;;;;;;;4.07;100.00;94953.81;5029207;28;20132;-72
2022/05/29 04:24:35;;;;;;;13.88;4.78;;;;;;;4.21;100.00;94946.41;5023344;28;22259;-72
2022/05/29 04:27:01;;;;;;;7.13;4.53;;;;;;;4.39;100.00;94950.56;5028613;28;20038;-72
2022/05/29 04:29:27;;;;;;;8.95;4.55;;;;;;;4.39;100.00;94955.75;5029029;28;20056;-72
2022/05/29 04:34:37;;;;;;;8.93;4.53;;;;;;;4.62;100.00;94944.28;5025393;28;20038;-72
2022/05/29 04:37:04;;;;;;;9.60;4.53;;;;;;;4.71;100.00;94939.41;5028596;28;20115;-72
2022/05/29 04:39:32;;;;;;;13.18;4.18;;;;;;;4.77;100.00;94941.03;5029325;28;20044;-72
2022/05/29 04:42:00;;;;;;;9.80;4.32;;;;;;;4.87;100.00;94935.94;5027784;28;20041;-72
2022/05/29 04:44:25;;;;;;;7.07;4.13;;;;;;;5.03;100.00;94935.03;5022298;28;20107;-72
2022/05/29 04:46:51;;;;;;;6.95;4.05;;;;;;;5.16;100.00;94938.25;5028765;28;20433;-72
2022/05/29 04:49:16;;;;;;;8.55;4.03;;;;;;;5.31;100.00;94935.75;5028935;28;20037;-72
2022/05/29 04:51:41;;;;;;;9.13;4.22;;;;;;;5.40;100.00;94937.91;5025278;28;20046;-72
2022/05/29 04:54:08;;;;;;;9.57;4.00;;;;;;;5.44;100.00;94944.19;5024611;28;20578;-72
2022/05/29 04:56:33;;;;;;;9.15;3.70;;;;;;;5.47;100.00;94943.69;5023671;28;20041;-72
2022/05/29 04:58:59;;;;;;;7.65;3.50;;;;;;;5.52;100.00;94941.13;5019622;28;20125;-72
2022/05/29 05:01:24;;;;;;;7.30;3.40;;;;;;;5.63;100.00;94942.78;5026366;28;20087;-72
2022/05/29 05:03:50;;;;;;;10.95;3.90;;;;;;;5.79;100.00;94940.25;5028612;28;20045;-72
2022/05/29 05:06:15;;;;;;;7.82;3.40;;;;;;;5.98;100.00;94933.59;5027965;28;20034;-72
2022/05/29 05:08:41;;;;;;;8.68;3.70;;;;;;;6.25;100.00;94937.91;5023101;28;20048;-72
2022/05/29 05:11:06;;;;;;;4.88;3.22;;;;;;;6.32;100.00;94938.44;5026858;28;20041;-72
2022/05/29 05:13:32;;;;;;;6.63;3.13;;;;;;;6.44;100.00;94937.41;5021349;28;20475;-72
2022/05/29 05:16:01;;;;;;;5.82;3.10;;;;;;;6.62;100.00;94942.19;5027171;28;20045;-72
2022/05/29 05:18:27;;;;;;;7.43;3.40;;;;;;;6.79;100.00;94946.41;5022164;28;20514;-72
2022/05/29 05:20:53;;;;;;;5.82;3.03;;;;;;;6.92;100.00;94935.44;5026132;28;20041;-72
2022/05/29 05:23:18;;;;;;;5.65;3.08;;;;;;;7.08;100.00;94939.66;5028271;28;20041;-72
2022/05/29 05:25:44;;;;;;;5.50;3.03;;;;;;;7.24;100.00;94948.31;5028625;28;20048;-72
2022/05/29 05:28:09;;;;;;;8.30;3.28;;;;;;;7.37;100.00;94952.22;5026395;28;20554;-72
2022/05/29 05:30:35;;;;;;;5.68;3.30;;;;;;;7.51;100.00;94957.69;5027012;28;20037;-72
2022/05/29 05:33:00;;;;;;;6.07;3.10;;;;;;;7.66;100.00;94951.69;5027530;28;20053;-72
2022/05/29 05:35:26;;;;;;;6.13;3.28;;;;;;;7.78;100.00;94952.16;5026967;28;20106;-73
2022/05/29 05:37:52;;;;;;;5.72;2.97;;;;;;;7.90;100.00;94953.72;5027393;28;20037;-72
2022/05/29 05:40:18;;;;;;;8.48;3.78;;;;;;;8.04;100.00;94949.50;5029780;28;20593;-75
2022/05/29 05:42:43;;;;;;;10.00;4.50;;;;;;;8.11;91.73;94955.25;5024691;28;20038;-72
2022/05/29 05:45:11;;;;;;;10.10;4.25;;;;;;;8.28;96.09;94954.16;5021868;28;20458;-72
2022/05/29 05:47:37;;;;;;;10.52;4.40;;;;;;;8.34;96.36;94958.31;5024543;28;20116;-73
2022/05/29 05:50:04;;;;;;;8.80;4.50;;;;;;;8.33;91.15;94961.97;5025769;28;20121;-73
2022/05/29 05:52:30;;;;;;;11.18;4.57;;;;;;;8.42;91.12;94955.16;5027787;28;20044;-72
2022/05/29 05:54:55;;;;;;;10.73;5.03;;;;;;;8.37;88.77;94957.78;5028126;28;20038;-72
2022/05/29 05:57:21;;;;;;;10.77;4.70;;;;;;;8.44;89.19;94960.94;5032068;28;20046;-72
2022/05/29 05:59:47;;;;;;;12.10;4.85;;;;;;;8.44;88.60;94958.31;5025306;28;20049;-74
2022/05/29 06:02:13;;;;;;;11.48;5.05;;;;;;;8.54;88.10;94956.69;5025715;28;20087;-73
2022/05/29 06:04:40;;;;;;;11.48;5.10;;;;;;;8.49;87.61;94953.03;5025412;28;20065;-74
2022/05/29 06:07:06;;;;;;;11.15;5.28;;;;;;;8.64;87.07;94951.41;5024563;28;20042;-74
2022/05/29 06:09:35;;;;;;;12.40;5.35;;;;;;;8.48;85.54;94948.84;5024036;28;20041;-75
2022/05/29 06:12:03;;;;;;;12.60;4.85;;;;;;;8.57;86.44;94945.66;5025709;28;20057;-75
2022/05/29 06:14:29;;;;;;;8.93;4.55;;;;;;;8.67;86.25;94945.63;5026315;28;20044;-76
2022/05/29 06:16:57;;;;;;;12.85;5.32;;;;;;;8.75;86.32;94942.44;5028224;28;20511;-76
2022/05/29 06:19:23;;;;;;;10.07;4.95;;;;;;;8.64;85.06;94946.16;5025250;28;20045;-75
2022/05/29 06:21:49;;;;;;;9.45;5.20;;;;;;;8.71;86.66;94941.41;5029720;28;20126;-75
2022/05/29 06:24:14;;;;;;;10.15;5.10;;;;;;;8.85;85.41;94952.09;5027865;28;20049;-75
2022/05/29 06:26:40;;;;;;;9.52;5.03;;;;;;;8.80;84.20;94963.38;5027841;28;20045;-75
2022/05/29 06:29:05;;;;;;;12.40;5.30;;;;;;;8.90;83.83;94965.16;5032360;28;20064;-76
2022/05/29 06:31:31;;;;;;;10.98;4.90;;;;;;;9.10;85.45;94959.00;5032164;28;20037;-76
2022/05/29 06:33:56;;;;;;;10.63;5.13;;;;;;;9.08;84.35;94955.88;5033069;28;20044;-75
2022/05/29 06:36:24;;;;;;;10.48;4.47;;;;;;;9.40;83.94;94956.44;5033186;28;20046;-76
2022/05/29 06:38:52;;;;;;;9.40;4.80;;;;;;;9.30;85.92;94949.41;5030011;28;20041;-76
2022/05/29 06:41:20;;;;;;;8.05;5.00;;;;;;;9.62;84.15;94948.09;5021971;28;20168;-73
2022/05/29 06:43:46;;;;;;;11.57;5.00;;;;;;;9.38;83.89;94938.34;5031950;28;20091;-75
2022/05/29 06:46:12;;;;;;;9.60;4.78;;;;;;;9.26;82.67;94935.28;5031016;28;20554;-75
2022/05/29 06:48:40;;;;;;;11.52;5.40;;;;;;;9.54;83.99;94937.13;5025259;28;20122;-76
2022/05/29 06:51:19;;;;;;;10.43;4.70;;;;;;;9.53;83.79;94930.31;5022255;28;20049;-76
2022/05/29 06:53:45;;;;;;;12.20;5.43;;;;;;;9.32;83.62;94924.47;5031758;28;20045;-78
2022/05/29 06:56:12;;;;;;;11.45;4.78;;;;;;;9.66;82.75;94938.63;5032228;28;20053;-76
2022/05/29 06:58:39;;;;;;;12.80;4.97;;;;;;;10.01;80.90;94944.56;5029709;28;20045;-76
2022/05/29 07:09:23;;;;;;;9.87;5.07;;;;;;;10.17;78.87;94938.09;5026401;28;20045;-75
2022/05/29 07:11:54;;;;;;;9.18;5.10;;;;;;;10.11;78.27;94938.44;5020575;28;20042;-74
2022/05/29 07:14:20;;;;;;;11.85;5.05;;;;;;;10.17;78.13;94935.47;5022491;28;20041;-75
2022/05/29 07:16:45;;;;;;;9.38;5.25;;;;;;;10.27;78.10;94941.66;5030784;28;20045;-75
2022/05/29 07:19:13;;;;;;;12.40;5.03;;;;;;;10.65;74.38;94941.78;5024089;28;20488;-72
2022/05/29 07:21:41;;;;;;;9.27;4.30;;;;;;;10.57;75.46;94941.34;5031508;28;20692;-74
2022/05/29 07:24:09;;;;;;;9.68;4.93;;;;;;;10.43;76.47;94929.94;5023817;28;20045;-75
2022/05/29 07:26:35;;;;;;;9.48;4.88;;;;;;;10.37;78.30;94920.53;5033157;28;20052;-75
2022/05/29 07:29:01;;;;;;;11.95;4.50;;;;;;;10.34;78.95;94932.41;5029891;28;20041;-77
2022/05/29 07:31:26;;;;;;;10.82;4.55;;;;;;;10.23;77.43;94952.75;5028567;28;20073;-75
2022/05/29 07:33:52;;;;;;;10.45;4.57;;;;;;;10.42;78.74;94938.88;5032062;28;20045;-74
2022/05/29 07:36:19;;;;;;;11.13;4.60;;;;;;;10.36;76.88;94918.97;5022810;28;20417;-76
2022/05/29 07:38:45;;;;;;;15.55;4.72;;;;;;;10.42;77.09;94928.38;5030242;28;20045;-75
2022/05/29 07:43:56;;;;;;;8.40;4.43;;;;;;;10.80;74.56;94949.44;5030449;28;20037;-76
2022/05/29 07:46:22;;;;;;;10.18;4.32;;;;;;;10.92;74.06;94931.38;5011243;28;20052;-80
2022/05/29 07:48:49;;;;;;;7.97;4.43;;;;;;;10.87;74.91;94928.81;5022689;28;20047;-77
2022/05/29 07:51:15;;;;;;;10.88;4.22;;;;;;;11.07;72.54;94929.59;5030030;28;20067;-76
2022/05/29 07:53:40;;;;;;;11.30;4.35;;;;;;;10.90;74.32;94938.81;5030219;28;20495;-80
2022/05/29 07:56:07;;;;;;;12.65;4.15;;;;;;;10.92;71.75;94947.19;5019867;28;20120;-78
2022/05/29 07:58:33;;;;;;;6.53;3.95;;;;;;;11.16;76.28;94945.53;5023788;28;20087;-77
2022/05/29 08:00:59;;;;;;;7.85;4.32;;;;;;;11.08;69.68;94925.91;5022050;28;20095;-75
2022/05/29 08:03:25;;;;;;;8.45;3.97;;;;;;;11.12;72.41;94945.34;5024054;28;20049;-77
2022/05/29 08:05:51;;;;;;;7.53;3.75;;;;;;;11.33;68.99;94964.22;5030753;28;20136;-78
2022/05/29 08:08:17;;;;;;;8.27;4.13;;;;;;;11.34;69.01;94957.13;5029587;28;20037;-75
2022/05/29 08:10:43;;;;;;;8.25;4.28;;;;;;;11.11;71.60;94953.53;5024933;28;20046;-75
2022/05/29 08:13:09;;;;;;;10.88;4.57;;;;;;;11.13;70.31;94941.63;5018383;28;20104;-77
2022/05/29 08:15:36;;;;;;;11.55;4.35;;;;;;;10.78;70.66;94941.06;5030465;28;20498;-74
2022/05/29 08:18:05;;;;;;;8.98;4.10;;;;;;;11.11;70.55;94943.75;5030954;28;20048;-75
2022/05/29 08:20:30;;;;;;;6.97;3.63;;;;;;;11.57;67.31;94945.66;5027714;28;20057;-74
2022/05/29 08:22:56;;;;;;;10.30;3.78;;;;;;;11.61;70.73;94945.88;5029775;28;20495;-75
2022/05/29 08:30:55;;;;;;;7.90;3.93;;;;;;;11.72;68.28;94949.13;5027222;28;20416;-75
2022/05/29 08:33:26;;;;;;;9.07;3.85;;;;;;;11.71;68.95;94955.47;5035424;28;20034;-76
2022/05/29 08:36:09;;;;;;;8.90;3.85;;;;;;;11.49;71.27;94943.69;5027798;28;20443;-74
2022/05/29 08:38:38;;;;;;;7.82;3.72;;;;;;;11.98;68.74;94938.16;5044283;28;20045;-75
2022/05/29 08:41:06;;;;;;;7.72;3.58;;;;;;;12.02;67.18;94939.16;5023891;28;20129;-75
2022/05/29 08:43:38;;;;;;;7.75;3.50;;;;;;;11.97;69.07;94953.22;5030042;28;20087;-75
2022/05/29 08:46:15;;;;;;;6.50;3.38;;;;;;;11.95;68.25;94945.59;5029732;28;20110;-75
2022/05/29 08:48:40;;;;;;;8.15;3.60;;;;;;;12.11;66.48;94929.47;5020869;28;20041;-75
2022/05/29 08:51:25;;;;;;;13.48;3.78;;;;;;;12.01;66.58;94948.13;5042739;28;20083;-74
2022/05/29 08:54:20;;;;;;;9.43;4.03;;;;;;;12.09;68.43;94944.81;5030097;28;20172;-75
2022/05/29 08:56:46;;;;;;;;;;;;;;;12.16;67.27;94961.03;5015832;28;20096;-74
2022/05/29 08:59:42;;;;;;;8.10;3.45;;;;;;;12.10;67.01;94956.94;5029352;28;19921;-74
2022/05/29 09:02:08;;;;;;;7.57;3.53;;;;;;;12.08;66.64;94943.25;5023667;28;20188;-74
2022/05/29 09:04:41;;;;;;;8.73;3.30;;;;;;;12.11;66.75;94937.38;5020502;28;20045;-74
2022/05/29 09:07:09;;;;;;;5.13;3.33;;;;;;;12.19;67.23;94928.78;5019422;28;20136;-73
2022/05/29 09:09:43;;;;;;;6.82;3.42;;;;;;;12.00;66.63;94936.03;5022442;28;20103;-74
2022/05/29 09:12:37;;;;;;;7.05;3.65;;;;;;;12.23;67.91;94945.59;5045499;28;20038;-74
2022/05/29 09:15:13;;;;;;;10.23;4.18;;;;;;;12.57;68.16;94959.44;5029125;28;20068;-73
2022/05/29 09:17:41;;;;;;;7.35;3.28;;;;;;;12.77;66.22;94953.78;5029160;28;20788;-75
2022/05/29 09:20:18;;;;;;;6.30;3.30;;;;;;;12.75;66.77;94944.59;5023341;28;20514;-74
2022/05/29 09:22:47;;;;;;;7.85;3.42;;;;;;;12.19;66.43;94939.34;5032167;28;20068;-74
2022/05/29 09:25:31;;;;;;;6.22;3.47;;;;;;;12.56;67.64;94927.00;5039339;28;20033;-73
2022/05/29 09:28:07;;;;;;;7.63;3.20;;;;;;;12.63;66.78;94927.38;5055070;28;20026;-73
2022/05/29 09:30:33;;;;;;;8.73;3.40;;;;;;;12.65;68.66;94925.22;5051154;28;20042;-73
2022/05/29 09:33:04;;;;;;;6.55;3.28;;;;;;;13.00;66.82;94928.19;5054496;28;20048;-72
2022/05/29 09:35:41;;;;;;;7.80;3.13;;;;;;;12.79;67.17;94927.06;5055540;28;20092;-73
2022/05/29 09:38:30;;;;;;;7.03;3.13;;;;;;;13.10;66.08;94926.38;5055586;28;20055;-73
2022/05/29 09:41:16;;;;;;;6.97;3.40;;;;;;;13.56;62.08;94933.28;5052065;28;20280;-72
2022/05/29 09:44:04;;;;;;;7.00;2.97;;;;;;;13.57;63.50;94934.81;5055649;28;20056;-71
2022/05/29 09:46:39;;;;;;;7.18;2.92;;;;;;;13.38;62.08;94928.97;5071495;28;20285;-73
2022/05/29 09:52:04;;;;;;;8.40;3.38;;;;;;;13.62;61.94;94924.13;5055880;28;20053;-72
2022/05/29 09:54:45;;;;;;;7.18;3.15;;;;;;;14.46;61.95;94928.81;5054717;28;20029;-71
2022/05/29 09:57:21;;;;;;;8.02;3.28;;;;;;;14.45;59.43;94928.06;5043848;28;20029;-71
2022/05/29 09:59:53;;;;;;;7.75;3.10;;;;;;;14.53;57.74;94913.25;5050960;28;20033;-72
2022/05/29 10:02:29;;;;;;;4.85;2.80;;;;;;;14.71;60.18;94917.53;5045985;28;20052;-73
2022/05/29 10:05:00;;;;;;;6.43;3.35;;;;;;;15.10;59.43;94919.56;5030757;28;20050;-76
2022/05/29 10:07:45;;;;;;;7.32;2.83;;;;;;;14.98;55.05;94926.25;5035365;28;20041;-76
2022/05/29 10:10:26;;;;;;;13.32;3.40;;;;;;;14.71;55.76;94920.19;5026087;28;20038;-76
2022/05/29 10:12:55;;;;;;;7.20;2.72;;;;;;;14.72;57.43;94916.44;5033909;28;20048;-76
2022/05/29 10:15:24;;;;;;;6.03;2.92;;;;;;;14.69;57.91;94914.41;5032642;28;20517;-75
2022/05/29 10:17:49;;;;;;;6.65;2.80;;;;;;;14.99;56.61;94909.28;5020414;28;20037;-75
2022/05/29 10:20:26;;;;;;;7.22;2.63;;;;;;;14.90;55.52;94911.16;5023438;28;20125;-74
2022/05/29 10:22:54;;;;;;;5.10;2.58;;;;;;;14.99;52.58;94898.69;5033443;28;20064;-74
2022/05/29 10:25:26;;;;;;;4.43;2.13;;;;;;;15.01;52.33;94885.91;5033458;28;20411;-74
2022/05/29 10:27:56;;;;;;;6.68;2.65;;;;;;;14.74;53.87;94892.31;5031500;28;20053;-76
2022/05/29 10:30:28;;;;;;;6.57;2.70;;;;;;;14.83;55.13;94879.81;5025324;28;20045;-75
2022/05/29 10:33:05;;;;;;;7.00;2.67;;;;;;;14.37;54.62;94876.63;5026131;28;20045;-74
2022/05/29 10:35:33;;;;;;;7.70;2.55;;;;;;;14.93;52.79;94878.75;5027845;28;20037;-75
2022/05/29 10:38:13;;;;;;;7.88;2.05;;;;;;;15.01;53.32;94885.91;5028195;28;20041;-74
2022/05/29 10:40:42;;;;;;;5.90;2.75;;;;;;;15.30;53.46;94887.13;5025309;28;20052;-73
2022/05/29 10:43:08;;;;;;;4.22;2.47;;;;;;;15.06;53.26;94883.09;5029618;28;20044;-74
2022/05/29 10:45:42;;;;;;;8.20;2.47;;;;;;;15.00;55.44;94881.69;5034039;28;20053;-75
2022/05/29 10:48:20;;;;;;;6.38;2.50;;;;;;;15.18;54.70;94884.34;5034139;28;20048;-74
2022/05/29 10:51:07;;;;;;;8.10;2.42;;;;;;;15.13;52.60;94879.19;5029178;28;20546;-74
2022/05/29 10:54:04;;;;;;;5.45;2.58;;;;;;;14.63;55.62;94881.22;5030516;28;20041;-74
2022/05/29 10:56:39;;;;;;;7.53;2.65;;;;;;;14.44;55.81;94876.19;5053389;28;20442;-74
2022/05/29 10:59:16;;;;;;;4.28;2.03;;;;;;;14.44;55.39;94883.31;5034896;28;20041;-73
2022/05/29 11:05:16;;;;;;;8.85;2.45;;;;;;;13.92;57.83;94883.97;5027251;28;20061;-77
2022/05/29 11:08:06;;;;;;;5.55;2.35;;;;;;;13.37;57.85;94879.81;5030990;28;20041;-81
2022/05/29 11:10:40;;;;;;;4.55;2.05;;;;;;;13.45;57.76;94881.75;5022278;28;20121;-75
2022/05/29 11:13:28;;;;;;;5.97;2.60;;;;;;;13.37;60.69;94885.09;5030548;28;20049;-74
2022/05/29 11:16:04;;;;;;;6.43;3.53;;;;;;;12.95;69.08;94891.31;5024781;28;20501;-76
2022/05/29 11:18:57;;;;;;;8.43;3.38;;;;;;;12.24;72.94;94883.84;5029353;28;20037;-75
2022/05/29 11:22:16;;;;;;;10.68;3.60;;;;;;;11.17;78.52;94889.94;5019473;28;20038;-74
2022/05/29 11:24:42;;;;;;;7.47;3.65;;;;;;;10.23;89.70;94910.69;4976134;28;20065;-75
2022/05/29 11:27:43;;;;;;;7.82;3.47;;;;;;;9.86;87.10;94922.63;5025269;28;20514;-75
2022/05/29 11:30:22;;;;;;;6.70;3.45;;;;;;;9.47;91.98;94926.16;5027314;28;20041;-75
2022/05/29 11:33:04;;;;;;;6.47;3.47;;;;;;;9.18;96.12;94913.78;5016391;28;20155;-75
2022/05/29 11:35:48;;;;;;;9.57;3.70;;;;;;;8.99;98.23;94936.50;5020544;28;20500;-75
2022/05/29 11:38:24;;;;;;;9.55;3.80;;;;;;;8.68;100.00;94947.19;5025511;28;20053;-72
2022/05/29 11:40:58;;;;;;;11.93;4.68;;;;;;;8.70;100.00;94960.81;5021748;28;20038;-73
2022/05/29 11:43:33;;;;;;;12.75;4.50;;;;;;;8.35;100.00;94970.38;5030973;28;20049;-75
2022/05/29 11:51:48;;;;;;;9.60;5.15;;;;;;;7.41;100.00;94962.94;5030966;28;20045;-73
2022/05/29 11:54:29;;;;;;;16.40;5.72;;;;;;;7.33;100.00;94976.59;5029817;28;20051;-74
2022/05/29 11:57:20;;;;;;;13.00;5.15;;;;;;;7.19;100.00;94987.53;5027081;28;20050;-74
2022/05/29 11:59:57;;;;;;;12.32;5.72;;;;;;;7.10;100.00;94992.50;5025404;28;20087;-73
2022/05/29 12:02:41;;;;;;;16.30;5.85;;;;;;;6.92;100.00;94998.22;5029915;28;20172;-75
2022/05/29 12:05:28;;;;;;;10.18;5.57;;;;;;;6.78;100.00;94997.94;5024011;28;20037;-73
2022/05/29 12:08:01;;;;;;;12.57;6.70;;;;;;;6.81;100.00;94991.38;5030211;28;20109;-74
2022/05/29 12:10:50;;;;;;;15.20;7.10;;;;;;;6.81;100.00;94996.63;5027966;28;20277;-74
2022/05/29 12:13:18;;;;;;;13.95;7.22;;;;;;;6.72;100.00;95005.00;5020921;28;20061;-75
2022/05/29 12:15:51;;;;;;;10.98;6.05;;;;;;;6.67;100.00;94999.72;5030001;28;20457;-76
2022/05/29 12:18:19;;;;;;;14.85;6.10;;;;;;;6.49;100.00;94995.72;5027600;28;20033;-75
2022/05/29 12:20:52;;;;;;;11.20;5.60;;;;;;;6.44;100.00;94997.53;5028581;28;20596;-75
2022/05/29 12:23:24;;;;;;;12.98;5.65;;;;;;;6.44;100.00;94997.53;5019111;28;20037;-74
2022/05/29 12:26:06;;;;;;;18.80;5.35;;;;;;;6.40;100.00;94992.81;5030008;28;20052;-74
2022/05/29 12:28:53;;;;;;;9.63;5.30;;;;;;;6.35;100.00;94995.44;5028805;28;20030;-74
2022/05/29 12:31:39;;;;;;;14.02;6.80;;;;;;;6.44;100.00;94994.91;5014194;28;20652;-74
2022/05/29 12:34:08;;;;;;;12.65;6.30;;;;;;;6.55;100.00;94993.91;5029192;28;20052;-73